createdAt,value
2022-12-25T00:00:20.774Z,9.40
2022-12-25T00:04:25.215Z,9.40
2022-12-25T00:08:28.987Z,9.40
2022-12-25T00:12:32.854Z,9.40
2022-12-25T00:16:36.652Z,9.50
2022-12-25T00:20:40.436Z,9.50
2022-12-25T00:24:44.205Z,9.70
2022-12-25T00:28:47.987Z,9.80
2022-12-25T05:35:00.618Z,8.30
2022-12-25T05:39:04.805Z,8.20
2022-12-25T05:43:08.957Z,8.10
2022-12-25T05:47:12.657Z,8.00
2022-12-25T05:51:16.524Z,7.90
2022-12-25T05:55:20.356Z,7.80
2022-12-25T05:59:24.094Z,7.60
2022-12-25T06:03:28.592Z,7.60
2022-12-25T06:07:32.529Z,7.60
2022-12-25T06:11:36.315Z,7.70
2022-12-25T06:15:41.632Z,7.80
2022-12-25T06:19:45.592Z,8.10
2022-12-25T06:23:52.206Z,8.40
2022-12-25T06:27:56.150Z,8.50
2022-12-25T06:32:00.059Z,8.70
2022-12-25T06:36:14.485Z,8.90
2022-12-25T06:40:18.476Z,9.10
2022-12-25T06:44:22.295Z,9.20
2022-12-25T06:48:26.145Z,9.30
2022-12-25T06:52:32.133Z,9.40
2022-12-25T06:56:35.946Z,9.50
2022-12-25T07:00:39.756Z,9.60
2022-12-25T07:04:45.612Z,9.60
2022-12-25T07:08:49.564Z,9.60
2022-12-25T07:12:53.559Z,9.60
2022-12-25T07:16:57.636Z,9.70
2022-12-25T07:21:09.862Z,9.90
2022-12-25T07:25:13.686Z,9.90
2022-12-25T07:29:18.255Z,10.00
2022-12-25T07:33:21.933Z,10.20
2022-12-25T07:37:27.836Z,10.30
2022-12-25T07:41:32.056Z,10.30
2022-12-25T07:45:56.795Z,10.40
2022-12-25T07:50:00.837Z,10.50
2022-12-25T07:54:04.947Z,10.60
2022-12-25T07:58:11.948Z,10.70
2022-12-25T08:02:16.169Z,10.80
2022-12-25T08:06:21.618Z,10.90
2022-12-25T08:10:25.793Z,11.00
2022-12-25T08:14:30.584Z,11.00
2022-12-25T08:18:35.574Z,11.20
2022-12-25T08:22:39.593Z,11.20
2022-12-25T08:26:43.609Z,11.30
2022-12-25T08:30:47.742Z,11.40
2022-12-25T08:34:51.777Z,11.50
2022-12-25T08:39:02.725Z,11.60
2022-12-25T08:43:07.614Z,11.70
2022-12-25T08:47:11.245Z,11.80
2022-12-25T08:51:17.603Z,11.90
2022-12-25T08:55:21.472Z,12.00
2022-12-25T08:59:26.453Z,12.10
2022-12-25T09:03:35.194Z,12.20
2022-12-25T09:07:39.141Z,12.20
2022-12-25T09:11:44.032Z,12.30
2022-12-25T09:15:48.024Z,12.50
2022-12-25T09:19:52.631Z,12.50
2022-12-25T09:23:58.134Z,12.70
2022-12-25T09:28:03.416Z,12.80
2022-12-25T09:32:07.812Z,12.90
2022-12-25T09:36:12.500Z,13.00
2022-12-25T09:40:24.020Z,13.20
2022-12-25T09:44:32.896Z,13.50
2022-12-25T09:48:42.943Z,13.70
2022-12-25T09:53:04.156Z,13.90
2022-12-25T09:57:13.295Z,14.00
2022-12-25T10:01:42.195Z,14.00
2022-12-25T10:06:18.986Z,14.10
2022-12-25T10:10:57.052Z,14.30
2022-12-25T10:15:04.956Z,14.50
2022-12-25T10:19:26.618Z,14.60
2022-12-25T10:23:41.286Z,14.70
2022-12-25T10:27:46.911Z,14.90
2022-12-25T10:31:55.704Z,14.90
2022-12-25T10:36:00.511Z,14.70
2022-12-25T10:40:24.932Z,14.60
2022-12-25T10:44:28.891Z,14.20
2022-12-25T10:48:34.054Z,13.90
2022-12-25T10:53:00.583Z,13.50
2022-12-25T10:57:10.279Z,13.30
2022-12-25T11:01:14.662Z,13.20
2022-12-25T11:05:28.860Z,13.00
2022-12-25T11:09:33.853Z,12.90
2022-12-25T11:13:48.251Z,12.80
2022-12-25T11:17:52.223Z,12.70
2022-12-25T11:22:00.002Z,12.60
2022-12-25T11:26:07.506Z,12.50
2022-12-25T11:30:16.233Z,12.60
2022-12-25T11:34:29.232Z,12.50
2022-12-25T11:38:33.095Z,12.60
2022-12-25T11:42:47.925Z,12.60
2022-12-25T11:46:52.782Z,12.60
2022-12-25T11:51:00.455Z,12.70
2022-12-25T11:55:17.737Z,12.70
2022-12-25T11:59:45.261Z,12.70
2022-12-25T12:03:49.691Z,12.70
2022-12-25T12:07:58.175Z,12.70
2022-12-25T12:12:20.741Z,12.70
2022-12-25T12:16:24.764Z,12.70
2022-12-25T12:20:34.852Z,12.70
2022-12-25T12:24:55.322Z,12.60
2022-12-25T12:29:02.963Z,12.60
2022-12-25T12:33:08.702Z,12.60
2022-12-25T12:37:34.920Z,12.60
2022-12-25T12:41:47.291Z,12.50
2022-12-25T12:45:57.716Z,12.50
2022-12-25T12:50:03.550Z,12.50
2022-12-25T12:54:23.982Z,12.50
2022-12-25T12:58:34.308Z,12.60
2022-12-25T13:02:57.428Z,12.60
2022-12-25T13:07:21.470Z,12.60
2022-12-25T13:11:31.875Z,12.60
2022-12-25T13:15:40.786Z,12.50
2022-12-25T13:19:46.065Z,12.50
2022-12-25T13:24:00.972Z,12.50
2022-12-25T13:28:06.912Z,12.50
2022-12-25T13:32:22.692Z,12.50
2022-12-25T13:36:31.828Z,12.50
2022-12-25T13:40:36.620Z,12.40
2022-12-25T13:44:54.805Z,12.40
2022-12-25T13:49:01.565Z,12.40
2022-12-25T13:53:16.621Z,12.40
2022-12-25T13:57:25.981Z,12.40
2022-12-25T14:01:30.226Z,12.30
2022-12-25T14:05:42.203Z,12.30
2022-12-25T14:09:51.609Z,12.30
2022-12-25T14:14:03.227Z,12.20
2022-12-25T14:18:19.852Z,12.20
2022-12-25T14:22:27.044Z,12.10
2022-12-25T14:26:35.915Z,12.00
2022-12-25T14:30:43.955Z,12.00
2022-12-25T14:34:53.635Z,12.00
2022-12-25T14:39:03.007Z,11.90
2022-12-25T14:43:20.662Z,11.70
2022-12-25T14:47:24.856Z,11.60
2022-12-25T14:51:33.032Z,11.50
2022-12-25T14:55:38.353Z,11.40
2022-12-25T14:59:42.445Z,11.30
2022-12-25T15:03:46.373Z,11.20
2022-12-25T15:08:03.984Z,11.10
2022-12-25T15:12:07.978Z,11.00
2022-12-25T15:16:17.334Z,10.80
2022-12-25T15:20:42.892Z,10.70
2022-12-25T15:24:48.794Z,10.60
2022-12-25T15:28:54.664Z,10.40
2022-12-25T15:32:58.733Z,10.30
2022-12-25T15:37:04.424Z,10.20
2022-12-25T15:41:39.849Z,10.10
2022-12-25T15:45:46.274Z,10.20
2022-12-25T15:49:50.574Z,10.40
2022-12-25T15:53:54.710Z,10.50
2022-12-25T15:58:00.781Z,10.70
2022-12-25T16:02:17.468Z,10.90
2022-12-25T16:06:22.863Z,10.90
2022-12-25T16:10:26.903Z,11.00
2022-12-25T16:14:31.046Z,11.00
2022-12-25T16:18:34.968Z,11.00
2022-12-25T16:22:41.551Z,11.10
2022-12-25T16:26:45.622Z,11.10
2022-12-25T16:30:49.647Z,11.10
2022-12-25T16:34:53.669Z,11.10
2022-12-25T16:38:57.640Z,11.10
2022-12-25T16:43:02.223Z,11.10
2022-12-25T16:47:06.990Z,11.10
2022-12-25T16:51:19.371Z,11.10
2022-12-25T16:55:29.622Z,11.10
2022-12-25T16:59:36.284Z,11.10
2022-12-25T17:03:40.521Z,11.10
2022-12-25T17:07:46.203Z,11.10
2022-12-25T17:11:50.453Z,11.10
2022-12-25T17:15:56.784Z,11.10
2022-12-25T17:20:03.052Z,11.20
2022-12-25T17:24:11.034Z,11.10
2022-12-25T17:28:16.706Z,11.20
2022-12-25T17:32:21.463Z,11.10
2022-12-25T17:36:27.337Z,11.20
2022-12-25T17:40:32.336Z,11.20
2022-12-25T17:44:37.154Z,11.20
2022-12-25T17:48:41.022Z,11.20
2022-12-25T17:52:44.843Z,11.20
2022-12-25T17:56:49.725Z,11.30
2022-12-25T18:00:55.104Z,11.30
2022-12-25T18:04:59.251Z,11.30
2022-12-25T18:09:06.710Z,11.30
2022-12-25T18:13:11.621Z,11.30
2022-12-25T18:17:15.695Z,11.40
2022-12-25T18:21:22.732Z,11.40
2022-12-25T18:25:26.966Z,11.40
2022-12-25T18:29:31.029Z,11.40
2022-12-25T18:33:36.168Z,11.40
2022-12-25T18:37:40.445Z,11.40
2022-12-25T18:42:11.905Z,11.50
2022-12-25T18:46:17.957Z,11.50
2022-12-25T18:50:22.074Z,11.40
2022-12-25T18:54:27.620Z,11.50
2022-12-25T18:58:31.612Z,11.40
2022-12-25T19:06:53.387Z,11.40
2022-12-25T19:10:58.357Z,11.40
2022-12-25T19:15:04.592Z,11.30
2022-12-25T19:19:09.613Z,11.40
2022-12-25T19:23:14.593Z,11.30
2022-12-25T19:27:19.749Z,11.40
2022-12-25T19:31:24.025Z,11.30
2022-12-25T19:35:29.295Z,11.30
2022-12-25T19:39:33.162Z,11.20
2022-12-25T19:43:39.830Z,11.20
2022-12-25T19:47:44.736Z,11.30
2022-12-25T19:51:49.165Z,11.30
2022-12-25T19:55:54.011Z,11.30
2022-12-25T19:59:57.915Z,11.30
2022-12-25T20:04:02.943Z,11.30
2022-12-25T20:08:08.253Z,11.30
2022-12-25T20:12:14.971Z,11.40
2022-12-25T20:16:19.768Z,11.40
2022-12-25T20:20:25.607Z,11.40
2022-12-25T20:24:31.965Z,11.40
2022-12-25T20:28:38.668Z,11.40
2022-12-25T20:32:50.186Z,11.40
2022-12-25T20:36:58.639Z,11.40
2022-12-25T20:45:35.096Z,11.40
2022-12-25T20:49:45.972Z,11.40
2022-12-25T20:53:53.086Z,11.40
2022-12-25T20:57:59.601Z,11.40
2022-12-25T21:02:04.693Z,11.40
2022-12-25T21:06:12.963Z,11.40
2022-12-25T21:10:22.564Z,11.40
2022-12-25T21:14:30.886Z,11.40
2022-12-25T21:18:37.380Z,11.40
2022-12-25T21:22:43.208Z,11.40
2022-12-25T21:26:50.024Z,11.30
2022-12-25T21:31:05.297Z,11.40
2022-12-25T21:35:14.557Z,11.30
2022-12-25T21:39:22.831Z,11.30
2022-12-25T21:43:31.787Z,11.30
2022-12-25T21:48:02.216Z,11.30
2022-12-25T21:52:09.638Z,11.30
2022-12-25T21:56:24.229Z,11.30
2022-12-25T22:00:31.277Z,11.30
2022-12-25T22:04:43.302Z,11.30
2022-12-25T22:08:50.737Z,11.20
2022-12-25T22:13:16.241Z,11.30
2022-12-25T22:17:47.463Z,11.30
2022-12-25T22:21:53.450Z,11.30
2022-12-25T22:25:59.717Z,11.30
2022-12-25T22:30:12.453Z,11.30
2022-12-25T22:34:18.380Z,11.30
2022-12-25T22:38:24.278Z,11.30
2022-12-25T22:42:29.832Z,11.30
2022-12-25T22:46:38.453Z,11.30
2022-12-25T22:50:45.185Z,11.30
2022-12-25T22:54:51.993Z,11.40
2022-12-25T22:58:57.344Z,11.40
2022-12-25T23:03:01.570Z,11.40
2022-12-25T23:07:05.764Z,11.30
2022-12-25T23:11:10.792Z,11.30
2022-12-25T23:15:16.080Z,11.30
2022-12-25T23:19:38.932Z,11.20
2022-12-25T23:24:03.560Z,11.20
2022-12-25T23:28:07.549Z,11.30
2022-12-25T23:32:15.899Z,11.30
2022-12-25T23:36:19.908Z,11.30
2022-12-25T23:40:24.202Z,11.30
2022-12-25T23:44:30.981Z,11.30
2022-12-25T23:48:35.000Z,11.30
2022-12-25T23:52:39.473Z,11.30
2022-12-25T23:56:44.541Z,11.20
